TimeEDT,TemperatureF,Dew PointF,Humidity,Sea Level PressureIn,VisibilityMPH,Wind Direction,Wind SpeedMPH,Gust SpeedMPH,PrecipitationIn,Events,Conditions,WindDirDegrees,DateUTC
12:56 AM,77.0,71.1,82,30.08,10.0,West,3.5,-,N/A,,Clear,280,2013-09-06 04:56:00
1:56 AM,77.0,72.0,84,30.07,10.0,NW,3.5,-,N/A,,Scattered Clouds,320,2013-09-06 05:56:00
2:56 AM,73.9,72.0,93,30.06,8.0,North,3.5,-,N/A,,Clear,10,2013-09-06 06:56:00
3:56 AM,75.9,72.0,87,30.05,10.0,North,4.6,-,N/A,,Clear,350,2013-09-06 07:56:00
4:56 AM,75.0,71.1,87,30.04,10.0,North,3.5,-,N/A,,Clear,360,2013-09-06 08:56:00
5:56 AM,73.9,71.1,91,30.05,10.0,North,3.5,-,N/A,,Clear,360,2013-09-06 09:56:00
6:56 AM,73.9,70.0,87,30.06,9.0,North,3.5,-,N/A,Fog,Shallow Fog,350,2013-09-06 10:56:00
7:56 AM,75.0,71.1,87,30.08,5.0,Calm,Calm,-,N/A,,Scattered Clouds,0,2013-09-06 11:56:00
8:56 AM,79.0,71.1,77,30.09,10.0,NE,5.8,-,N/A,,Scattered Clouds,50,2013-09-06 12:56:00
9:56 AM,82.9,66.9,58,30.09,10.0,NE,6.9,-,N/A,,Scattered Clouds,50,2013-09-06 13:56:00
10:56 AM,86.0,64.9,49,30.10,10.0,NE,8.1,-,N/A,,Scattered Clouds,40,2013-09-06 14:56:00
11:56 AM,88.0,62.1,42,30.10,10.0,NE,5.8,-,N/A,,Scattered Clouds,40,2013-09-06 15:56:00
12:56 PM,90.0,64.0,42,30.09,10.0,Variable,4.6,-,N/A,,Scattered Clouds,0,2013-09-06 16:56:00
1:56 PM,91.0,64.0,41,30.09,10.0,NE,9.2,-,N/A,,Scattered Clouds,40,2013-09-06 17:56:00
2:56 PM,89.1,63.0,42,30.06,10.0,ENE,8.1,-,N/A,,Mostly Cloudy,60,2013-09-06 18:56:00
3:56 PM,91.0,60.1,35,30.04,10.0,NNE,11.5,-,N/A,,Mostly Cloudy,30,2013-09-06 19:56:00
4:56 PM,90.0,60.1,37,30.03,10.0,NE,8.1,-,N/A,,Mostly Cloudy,40,2013-09-06 20:56:00
5:56 PM,88.0,64.9,46,30.02,10.0,ESE,5.8,-,N/A,,Mostly Cloudy,110,2013-09-06 21:56:00
6:56 PM,84.9,69.1,59,30.02,10.0,ESE,5.8,-,N/A,,Clear,120,2013-09-06 22:56:00
7:56 PM,82.0,70.0,67,30.04,10.0,SE,4.6,-,N/A,,Clear,140,2013-09-06 23:56:00
8:56 PM,79.0,69.1,72,30.06,10.0,Calm,Calm,-,N/A,,Clear,0,2013-09-07 00:56:00
9:56 PM,75.9,69.1,79,30.06,10.0,North,3.5,-,N/A,,Clear,350,2013-09-07 01:56:00
10:56 PM,75.9,72.0,87,30.06,10.0,North,3.5,-,N/A,,Clear,360,2013-09-07 02:56:00
11:56 PM,75.9,71.1,85,30.06,10.0,Calm,Calm,-,N/A,,Clear,0,2013-09-07 03:56:00